Time,TemperatureF,DewpointF,PressureIn,WindDirection,WindDirectionDegrees,WindSpeedMPH,WindSpeedGustMPH,Humidity,HourlyPrecipIn,Conditions,Clouds,dailyrainin,SoftwareType,DateUTC
2013-08-18 00:06:00,58.6,58.3,30.13,NNW,337,2.7,-999.0,99,-99.99,,,0.02,Acu-Link.com,2013-08-18 04:06:00,
2013-08-18 00:21:00,58.6,58.3,30.13,ESE,112,2.2,-999.0,99,-99.99,,,0.06,Acu-Link.com,2013-08-18 04:21:00,
2013-08-18 00:36:00,58.6,58.3,30.12,East,90,4.7,-999.0,99,-99.99,,,0.09,Acu-Link.com,2013-08-18 04:36:00,
2013-08-18 00:52:00,58.5,58.2,30.12,North,0,3.7,-999.0,99,-99.99,,,0.15,Acu-Link.com,2013-08-18 04:52:00,
2013-08-18 01:07:00,58.5,58.2,30.11,NNE,22,1.1,-999.0,99,-99.99,,,0.17,Acu-Link.com,2013-08-18 05:07:00,
2013-08-18 01:22:00,58.5,58.2,30.11,NE,45,5.8,-999.0,99,-99.99,,,0.19,Acu-Link.com,2013-08-18 05:22:00,
2013-08-18 01:37:00,58.5,58.2,30.10,East,90,7.8,-999.0,99,-99.99,,,0.20,Acu-Link.com,2013-08-18 05:37:00,
2013-08-18 01:52:00,58.5,58.2,30.10,NW,315,1.7,-999.0,99,-99.99,,,0.22,Acu-Link.com,2013-08-18 05:52:00,
2013-08-18 02:07:00,58.3,58.0,30.09,NW,315,3.2,-999.0,99,-99.99,,,0.23,Acu-Link.com,2013-08-18 06:07:00,
2013-08-18 02:23:00,58.3,58.0,30.09,ESE,112,0.0,-999.0,99,-99.99,,,0.26,Acu-Link.com,2013-08-18 06:23:00,
2013-08-18 02:38:00,58.3,58.0,30.09,North,0,2.7,-999.0,99,-99.99,,,0.28,Acu-Link.com,2013-08-18 06:38:00,
2013-08-18 02:53:00,58.3,58.0,30.08,North,0,1.7,-999.0,99,-99.99,,,0.32,Acu-Link.com,2013-08-18 06:53:00,
2013-08-18 03:08:00,58.3,58.0,30.08,ENE,67,4.2,-999.0,99,-99.99,,,0.35,Acu-Link.com,2013-08-18 07:08:00,
2013-08-18 03:24:00,58.3,58.0,30.08,West,270,3.7,-999.0,99,-99.99,,,0.38,Acu-Link.com,2013-08-18 07:24:00,
2013-08-18 03:39:00,58.3,58.0,30.08,NW,315,3.7,-999.0,99,-99.99,,,0.40,Acu-Link.com,2013-08-18 07:39:00,
2013-08-18 03:54:00,58.3,58.0,30.08,East,90,0.0,-999.0,99,-99.99,,,0.46,Acu-Link.com,2013-08-18 07:54:00,
2013-08-18 04:09:00,58.1,57.8,30.08,NNE,22,0.0,-999.0,99,-99.99,,,0.49,Acu-Link.com,2013-08-18 08:09:00,
2013-08-18 04:25:00,58.1,57.8,30.09,East,90,2.2,-999.0,99,-99.99,,,0.51,Acu-Link.com,2013-08-18 08:25:00,
2013-08-18 04:40:00,58.1,57.8,30.09,East,90,1.7,-999.0,99,-99.99,,,0.53,Acu-Link.com,2013-08-18 08:40:00,
2013-08-18 04:55:00,57.9,57.6,30.08,SW,225,1.1,-999.0,99,-99.99,,,0.75,Acu-Link.com,2013-08-18 08:55:00,
2013-08-18 05:10:00,57.7,57.4,30.08,SSW,202,0.0,-999.0,99,-99.99,,,0.88,Acu-Link.com,2013-08-18 09:10:00,
2013-08-18 05:25:00,57.7,57.4,30.09,NE,45,0.0,-999.0,99,-99.99,,,0.95,Acu-Link.com,2013-08-18 09:25:00,
2013-08-18 05:40:00,57.6,57.3,30.10,NE,45,0.0,-999.0,99,-99.99,,,0.99,Acu-Link.com,2013-08-18 09:40:00,
2013-08-18 05:56:00,57.6,57.3,30.09,East,90,0.0,-999.0,99,-99.99,,,1.08,Acu-Link.com,2013-08-18 09:56:00,
2013-08-18 06:11:00,57.6,57.3,30.09,ESE,112,2.2,-999.0,99,-99.99,,,1.14,Acu-Link.com,2013-08-18 10:11:00,
2013-08-18 06:26:00,57.6,57.3,30.09,NNE,22,2.7,-999.0,99,-99.99,,,1.16,Acu-Link.com,2013-08-18 10:26:00,
2013-08-18 06:42:00,57.6,57.3,30.11,East,90,1.1,-999.0,99,-99.99,,,1.16,Acu-Link.com,2013-08-18 10:42:00,
2013-08-18 06:57:00,57.6,57.3,30.11,East,90,2.2,-999.0,99,-99.99,,,1.18,Acu-Link.com,2013-08-18 10:57:00,
2013-08-18 07:12:00,57.6,57.3,30.12,ESE,112,1.7,-999.0,99,-99.99,,,1.19,Acu-Link.com,2013-08-18 11:12:00,
2013-08-18 07:28:00,57.6,57.3,30.12,NE,45,1.7,-999.0,99,-99.99,,,1.20,Acu-Link.com,2013-08-18 11:28:00,
2013-08-18 07:43:00,57.7,57.4,30.12,North,0,1.7,-999.0,99,-99.99,,,1.21,Acu-Link.com,2013-08-18 11:43:00,
2013-08-18 07:58:00,57.9,57.6,30.12,ENE,67,1.1,-999.0,99,-99.99,,,1.22,Acu-Link.com,2013-08-18 11:58:00,
2013-08-18 08:14:00,57.9,57.6,30.12,SSE,157,3.7,-999.0,99,-99.99,,,1.22,Acu-Link.com,2013-08-18 12:14:00,
2013-08-18 08:29:00,58.1,57.8,30.13,SE,135,2.2,-999.0,99,-99.99,,,1.23,Acu-Link.com,2013-08-18 12:29:00,
2013-08-18 08:44:00,58.3,58.0,30.13,NE,45,0.0,-999.0,99,-99.99,,,1.24,Acu-Link.com,2013-08-18 12:44:00,
2013-08-18 08:59:00,58.6,58.3,30.14,NNW,337,0.0,-999.0,99,-99.99,,,1.24,Acu-Link.com,2013-08-18 12:59:00,
2013-08-18 09:15:00,58.8,58.5,30.13,NNE,22,1.1,-999.0,99,-99.99,,,1.24,Acu-Link.com,2013-08-18 13:15:00,
2013-08-18 09:30:00,59.0,58.7,30.14,NNE,22,0.0,-999.0,99,-99.99,,,1.25,Acu-Link.com,2013-08-18 13:30:00,
2013-08-18 09:45:00,59.5,59.2,30.13,ESE,112,3.7,-999.0,99,-99.99,,,1.26,Acu-Link.com,2013-08-18 13:45:00,
2013-08-18 10:01:00,59.5,59.2,30.14,East,90,2.7,-999.0,99,-99.99,,,1.26,Acu-Link.com,2013-08-18 14:01:00,
2013-08-18 10:16:00,59.7,59.4,30.15,SW,225,0.0,-999.0,99,-99.99,,,1.26,Acu-Link.com,2013-08-18 14:16:00,
2013-08-18 10:31:00,59.4,59.1,30.15,ESE,112,2.2,-999.0,99,-99.99,,,1.26,Acu-Link.com,2013-08-18 14:31:00,
2013-08-18 10:46:00,59.5,59.2,30.15,East,90,3.7,-999.0,99,-99.99,,,1.28,Acu-Link.com,2013-08-18 14:46:00,
2013-08-18 11:02:00,60.3,60.0,30.15,SE,135,3.7,-999.0,99,-99.99,,,1.28,Acu-Link.com,2013-08-18 15:02:00,
2013-08-18 11:17:00,60.4,60.1,30.14,NNW,337,1.7,-999.0,99,-99.99,,,1.28,Acu-Link.com,2013-08-18 15:17:00,
2013-08-18 11:32:00,60.3,60.0,30.15,SE,135,0.0,-999.0,99,-99.99,,,1.28,Acu-Link.com,2013-08-18 15:32:00,
2013-08-18 11:47:00,61.3,61.0,30.15,West,270,0.0,-999.0,99,-99.99,,,1.29,Acu-Link.com,2013-08-18 15:47:00,
2013-08-18 12:03:00,61.0,60.7,30.15,WNW,292,3.7,-999.0,99,-99.99,,,1.29,Acu-Link.com,2013-08-18 16:03:00,
2013-08-18 12:18:00,62.1,61.8,30.14,NNW,337,3.2,-999.0,99,-99.99,,,1.29,Acu-Link.com,2013-08-18 16:18:00,
2013-08-18 12:33:00,61.9,61.3,30.14,WNW,292,3.2,-999.0,98,-99.99,,,1.30,Acu-Link.com,2013-08-18 16:33:00,
2013-08-18 12:48:00,62.4,61.8,30.13,ESE,112,3.7,-999.0,98,-99.99,,,1.30,Acu-Link.com,2013-08-18 16:48:00,
2013-08-18 13:04:00,64.8,62.7,30.13,ESE,112,2.2,-999.0,93,-99.99,,,1.30,Acu-Link.com,2013-08-18 17:04:00,
2013-08-18 13:19:00,64.8,62.7,30.14,South,180,2.2,-999.0,93,-99.99,,,1.30,Acu-Link.com,2013-08-18 17:19:00,
2013-08-18 13:34:00,64.4,62.3,30.12,SE,135,0.0,-999.0,93,-99.99,,,1.30,Acu-Link.com,2013-08-18 17:34:00,
2013-08-18 13:50:00,67.5,65.7,30.13,South,180,0.0,-999.0,94,-99.99,,,1.30,Acu-Link.com,2013-08-18 17:50:00,
2013-08-18 14:05:00,69.3,65.6,30.13,WSW,247,0.0,-999.0,88,-99.99,,,1.30,Acu-Link.com,2013-08-18 18:05:00,
2013-08-18 14:20:00,70.0,66.3,30.12,SW,225,0.0,-999.0,88,-99.99,,,1.30,Acu-Link.com,2013-08-18 18:20:00,
2013-08-18 14:35:00,68.4,65.0,30.10,NNE,22,1.1,-999.0,89,-99.99,,,1.30,Acu-Link.com,2013-08-18 18:35:00,
2013-08-18 14:51:00,65.3,63.2,30.09,ESE,112,6.8,-999.0,93,-99.99,,,1.30,Acu-Link.com,2013-08-18 18:51:00,
2013-08-18 15:06:00,63.5,62.6,30.09,South,180,1.7,-999.0,97,-99.99,,,1.30,Acu-Link.com,2013-08-18 19:06:00,
2013-08-18 15:21:00,65.3,62.9,30.09,East,90,2.7,-999.0,92,-99.99,,,1.30,Acu-Link.com,2013-08-18 19:21:00,
2013-08-18 15:36:00,66.2,64.4,30.10,WNW,292,0.0,-999.0,94,-99.99,,,1.30,Acu-Link.com,2013-08-18 19:36:00,
2013-08-18 15:51:00,69.8,65.4,30.09,ESE,112,0.0,-999.0,86,-99.99,,,1.30,Acu-Link.com,2013-08-18 19:51:00,
2013-08-18 16:07:00,67.3,63.6,30.10,ENE,67,3.2,-999.0,88,-99.99,,,1.30,Acu-Link.com,2013-08-18 20:07:00,
2013-08-18 16:22:00,66.9,64.5,30.09,NNE,22,0.0,-999.0,92,-99.99,,,1.30,Acu-Link.com,2013-08-18 20:22:00,
2013-08-18 16:37:00,67.1,64.7,30.09,East,90,1.7,-999.0,92,-99.99,,,1.30,Acu-Link.com,2013-08-18 20:37:00,
2013-08-18 16:52:00,67.5,64.5,30.10,East,90,1.7,-999.0,90,-99.99,,,1.30,Acu-Link.com,2013-08-18 20:52:00,
2013-08-18 17:07:00,67.3,64.6,30.09,NW,315,2.2,-999.0,91,-99.99,,,1.30,Acu-Link.com,2013-08-18 21:07:00,
2013-08-18 17:23:00,68.5,65.1,30.08,NW,315,3.7,-999.0,89,-99.99,,,1.30,Acu-Link.com,2013-08-18 21:23:00,
2013-08-18 17:38:00,67.8,64.8,30.08,ESE,112,3.7,-999.0,90,-99.99,,,1.30,Acu-Link.com,2013-08-18 21:38:00,
2013-08-18 17:53:00,67.1,64.4,30.08,ESE,112,4.7,-999.0,91,-99.99,,,1.30,Acu-Link.com,2013-08-18 21:53:00,
2013-08-18 18:08:00,65.8,63.4,30.09,ESE,112,2.7,-999.0,92,-99.99,,,1.30,Acu-Link.com,2013-08-18 22:08:00,
2013-08-18 18:23:00,64.6,62.8,30.09,North,0,1.1,-999.0,94,-99.99,,,1.30,Acu-Link.com,2013-08-18 22:23:00,
2013-08-18 18:38:00,64.0,62.8,30.09,WNW,292,3.2,-999.0,96,-99.99,,,1.30,Acu-Link.com,2013-08-18 22:38:00,
2013-08-18 18:54:00,63.0,62.7,30.08,ENE,67,0.0,-999.0,99,-99.99,,,1.30,Acu-Link.com,2013-08-18 22:54:00,
2013-08-18 19:09:00,63.1,62.8,30.09,NE,45,1.1,-999.0,99,-99.99,,,1.30,Acu-Link.com,2013-08-18 23:09:00,
2013-08-18 19:24:00,63.1,62.8,30.10,ENE,67,1.1,-999.0,99,-99.99,,,1.30,Acu-Link.com,2013-08-18 23:24:00,
2013-08-18 19:40:00,63.3,63.0,30.11,West,270,0.0,-999.0,99,-99.99,,,1.30,Acu-Link.com,2013-08-18 23:40:00,
2013-08-18 19:55:00,63.1,62.5,30.10,NW,315,0.0,-999.0,98,-99.99,,,1.30,Acu-Link.com,2013-08-18 23:55:00,
2013-08-18 20:10:00,62.8,62.5,30.11,SSW,202,0.0,-999.0,99,-99.99,,,1.30,Acu-Link.com,2013-08-19 00:10:00,
2013-08-18 20:25:00,62.6,62.3,30.12,WSW,247,0.0,-999.0,99,-99.99,,,1.30,Acu-Link.com,2013-08-19 00:25:00,
2013-08-18 20:41:00,62.1,61.8,30.12,ENE,67,3.2,-999.0,99,-99.99,,,1.30,Acu-Link.com,2013-08-19 00:41:00,
2013-08-18 20:56:00,61.7,61.4,30.13,SSE,157,3.7,-999.0,99,-99.99,,,1.30,Acu-Link.com,2013-08-19 00:56:00,
2013-08-18 21:11:00,61.7,61.4,30.13,SSE,157,1.7,-999.0,99,-99.99,,,1.30,Acu-Link.com,2013-08-19 01:11:00,
2013-08-18 21:26:00,61.5,61.2,30.13,South,180,1.7,-999.0,99,-99.99,,,1.30,Acu-Link.com,2013-08-19 01:26:00,
2013-08-18 21:42:00,61.5,61.2,30.14,South,180,0.0,-999.0,99,-99.99,,,1.30,Acu-Link.com,2013-08-19 01:42:00,
2013-08-18 21:57:00,61.5,61.2,30.15,South,180,0.0,-999.0,99,-99.99,,,1.30,Acu-Link.com,2013-08-19 01:57:00,
2013-08-18 22:12:00,61.5,61.2,30.14,SSW,202,1.7,-999.0,99,-99.99,,,1.30,Acu-Link.com,2013-08-19 02:12:00,
2013-08-18 22:28:00,61.5,61.2,30.14,SSW,202,0.0,-999.0,99,-99.99,,,1.30,Acu-Link.com,2013-08-19 02:28:00,
2013-08-18 22:43:00,61.5,61.2,30.14,South,180,1.7,-999.0,99,-99.99,,,1.30,Acu-Link.com,2013-08-19 02:43:00,
2013-08-18 22:58:00,61.3,61.0,30.14,West,270,2.7,-999.0,99,-99.99,,,1.30,Acu-Link.com,2013-08-19 02:58:00,
2013-08-18 23:13:00,61.3,61.0,30.14,South,180,0.0,-999.0,99,-99.99,,,1.30,Acu-Link.com,2013-08-19 03:13:00,
2013-08-18 23:28:00,61.3,61.0,30.13,South,180,1.7,-999.0,99,-99.99,,,1.30,Acu-Link.com,2013-08-19 03:28:00,
2013-08-18 23:44:00,61.2,60.9,30.14,SSW,202,0.0,-999.0,99,-99.99,,,1.30,Acu-Link.com,2013-08-19 03:44:00,
2013-08-18 23:59:00,61.2,60.9,30.13,South,180,1.1,-999.0,99,-99.99,,,1.30,Acu-Link.com,2013-08-19 03:59:00,